Ceibas, Argentina
Current Conditions -  °F | °C
As of 8:00 PM on Thursday 20 Nov 2014 (Local Time) from SADF Reporting Station
Overcast Overcast  
Wind Chill: 23°   Ceiling: 10000
Heat Index: 23°   Visibility: 6mi
Dew Point: 16°   Wind: 7mph
Humidity: 65%   Direction: 70°ENE
Pressure: 29.97"   Gusts: NA
Location:  33.6°S, 58.73°W
Report Text: SADF 202300Z 07006KT 9999 FEW035 BKN100OVC200 23/16 Q1015
Loading
Personal Weather Stations






























Interactive Weather Map New forecast layout! Learn more

10-Day Weather Forecast

Advertisements
Track Severe Weather on mobile